Time;durP1;ratioP1;P1;durP2;ratioP2;P2;SDS_P1;SDS_P2;PMS_P1;PMS_P2;Temp;Humidity;BMP_temperature;BMP_pressure;BME280_temperature;BME280_humidity;BME280_pressure;Samples;Min_cycle;Max_cycle;Signal;HPM_P1;HPM_P2
2022/06/04 00:01:26;;;;;;;6.55;2.10;;;15.80;59.60;;;;;;5113832;28;20023;-28
2022/06/04 00:03:51;;;;;;;3.38;1.90;;;15.70;60.00;;;;;;5113153;28;20028;-28
2022/06/04 00:06:17;;;;;;;1.70;1.50;;;15.70;60.30;;;;;;5112226;28;20016;-28
2022/06/04 00:08:43;;;;;;;2.60;1.60;;;15.70;60.50;;;;;;5112895;28;20077;-28
2022/06/04 00:16:36;;;;;;;2.70;1.48;;;15.50;61.20;;;;;;5113025;28;20039;-29
2022/06/04 00:19:03;;;;;;;1.58;1.42;;;15.40;61.40;;;;;;5113019;28;20031;-29
2022/06/04 00:21:28;;;;;;;2.55;1.52;;;15.40;61.50;;;;;;5113403;28;20427;-30
2022/06/04 00:23:54;;;;;;;2.20;1.50;;;15.40;61.90;;;;;;5113320;28;20111;-33
2022/06/04 00:26:20;;;;;;;2.55;1.50;;;15.30;62.20;;;;;;5113217;28;20498;-28
2022/06/04 00:28:46;;;;;;;3.55;1.70;;;15.30;62.10;;;;;;5112900;28;20102;-45
2022/06/04 00:31:13;;;;;;;2.20;1.50;;;15.20;62.30;;;;;;5113139;28;20047;-44
2022/06/04 00:33:39;;;;;;;2.70;1.40;;;15.20;62.60;;;;;;5112001;28;20016;-45
2022/06/04 00:36:05;;;;;;;2.42;1.52;;;15.10;62.80;;;;;;5113140;28;20483;-45
2022/06/04 00:38:32;;;;;;;2.10;1.80;;;15.00;63.00;;;;;;5113160;28;20027;-47
2022/06/04 00:41:18;;;;;;;3.40;1.60;;;15.00;63.40;;;;;;5113560;28;20024;-44
2022/06/04 00:43:56;;;;;;;5.80;1.70;;;15.00;63.70;;;;;;5112411;28;20043;-44
2022/06/04 00:47:06;;;;;;;5.55;1.90;;;14.90;63.80;;;;;;5113026;28;20103;-40
2022/06/04 00:49:31;;;;;;;2.97;1.80;;;14.90;64.10;;;;;;5113083;28;20077;-40
2022/06/04 00:51:58;;;;;;;3.72;2.00;;;14.80;64.30;;;;;;5113142;28;20471;-37
2022/06/04 00:54:23;;;;;;;2.40;1.80;;;14.70;64.20;;;;;;5111748;28;20073;-39
2022/06/04 00:56:56;;;;;;;4.60;1.55;;;14.70;64.20;;;;;;5112697;28;20019;-39
2022/06/04 00:59:38;;;;;;;3.53;1.83;;;14.70;64.40;;;;;;5112621;28;20051;-40
2022/06/04 01:02:41;;;;;;;3.83;2.05;;;14.70;64.80;;;;;;5111493;28;20387;-38
2022/06/04 01:05:44;;;;;;;4.10;2.05;;;14.60;64.90;;;;;;5112472;28;20060;-38
2022/06/04 01:08:30;;;;;;;4.03;1.93;;;14.60;65.30;;;;;;5112386;28;20039;-39
2022/06/04 01:11:01;;;;;;;2.10;1.67;;;14.60;65.30;;;;;;5111538;28;20038;-38
2022/06/04 01:13:48;;;;;;;2.60;2.20;;;14.50;65.10;;;;;;5111505;28;20146;-39
2022/06/04 01:16:32;;;;;;;5.38;2.13;;;14.50;65.40;;;;;;5112517;28;20038;-40
2022/06/04 01:19:19;;;;;;;3.42;2.17;;;14.40;65.60;;;;;;5112396;28;20026;-38
2022/06/04 01:21:47;;;;;;;2.50;2.25;;;14.40;66.00;;;;;;5115801;28;20476;-40
2022/06/04 01:24:32;;;;;;;2.25;1.80;;;14.30;65.90;;;;;;5116155;28;20024;-40
2022/06/04 01:27:14;;;;;;;3.13;2.20;;;14.30;66.00;;;;;;5116261;28;20031;-38
2022/06/04 01:29:43;;;;;;;2.40;2.20;;;14.30;66.20;;;;;;5116110;28;20026;-39
2022/06/04 01:32:41;;;;;;;3.03;2.20;;;14.20;66.40;;;;;;5115984;28;20286;-39
2022/06/04 01:35:12;;;;;;;4.70;2.70;;;14.20;66.80;;;;;;5115799;28;20027;-39
2022/06/04 01:37:50;;;;;;;5.05;2.42;;;14.20;66.70;;;;;;5115892;27;20015;-38
2022/06/04 01:43:10;;;;;;;4.03;2.10;;;14.20;66.80;;;;;;5115993;28;20031;-40
2022/06/04 01:45:39;;;;;;;4.10;2.50;;;14.20;66.80;;;;;;5115598;28;20028;-45
2022/06/04 01:48:09;;;;;;;2.83;2.00;;;14.20;66.80;;;;;;5115787;28;20020;-39
2022/06/04 01:50:41;;;;;;;2.95;2.05;;;14.30;66.80;;;;;;5114367;28;20023;-39
2022/06/04 01:53:10;;;;;;;3.63;2.30;;;14.30;66.70;;;;;;5115658;28;20024;-38
2022/06/04 01:55:47;;;;;;;4.38;2.38;;;14.30;66.80;;;;;;5115578;28;20012;-39
2022/06/04 01:58:18;;;;;;;2.95;2.40;;;14.30;66.80;;;;;;5115490;28;20536;-38
2022/06/04 02:00:50;;;;;;;3.15;2.58;;;14.30;67.00;;;;;;5115691;28;20020;-40
2022/06/04 02:03:21;;;;;;;4.13;2.03;;;14.20;67.00;;;;;;5114162;28;20020;-39
2022/06/04 02:06:09;;;;;;;3.22;2.25;;;14.20;67.00;;;;;;5115681;28;20019;-38
2022/06/04 02:08:53;;;;;;;4.05;2.47;;;14.20;67.10;;;;;;5115262;28;20032;-38
2022/06/04 02:11:21;;;;;;;6.30;3.03;;;14.20;67.20;;;;;;5115324;28;20103;-39
2022/06/04 02:13:50;;;;;;;3.15;2.20;;;14.20;67.30;;;;;;5115495;28;20026;-39
2022/06/04 02:16:34;;;;;;;5.70;3.25;;;14.20;67.30;;;;;;5115150;28;20015;-41
2022/06/04 02:19:00;;;;;;;3.75;2.65;;;14.20;67.60;;;;;;5115271;27;20027;-38
2022/06/04 02:21:27;;;;;;;4.60;2.53;;;14.10;67.90;;;;;;5115427;28;20104;-39
2022/06/04 02:23:55;;;;;;;4.65;2.83;;;14.00;67.80;;;;;;5114954;27;20020;-39
2022/06/04 02:26:22;;;;;;;3.35;2.40;;;14.00;68.60;;;;;;5114986;28;20027;-39
2022/06/04 02:28:47;;;;;;;3.85;2.08;;;14.00;68.00;;;;;;5114970;28;20475;-38
2022/06/04 02:31:42;;;;;;;4.88;2.53;;;14.00;68.00;;;;;;5114479;28;20098;-39
2022/06/04 02:34:29;;;;;;;4.47;2.50;;;14.10;68.10;;;;;;5114694;28;20506;-40
2022/06/04 02:37:16;;;;;;;4.05;2.58;;;14.00;68.30;;;;;;5115267;28;20024;-39
2022/06/04 02:40:01;;;;;;;5.28;2.45;;;14.00;68.20;;;;;;5113480;28;20066;-38
2022/06/04 02:42:59;;;;;;;3.20;2.10;;;14.00;68.20;;;;;;5114912;28;20479;-40
2022/06/04 02:45:32;;;;;;;3.92;2.28;;;14.00;69.10;;;;;;5100098;28;20028;-39
2022/06/04 02:48:05;;;;;;;4.97;2.38;;;14.00;68.40;;;;;;5114685;28;20028;-39
2022/06/04 02:50:47;;;;;;;4.70;2.13;;;14.00;68.70;;;;;;5114811;28;20031;-40
2022/06/04 02:53:15;;;;;;;4.55;2.90;;;14.00;68.70;;;;;;5114445;28;20020;-38
2022/06/04 02:55:47;;;;;;;4.20;2.50;;;13.90;69.60;;;;;;5114704;28;20028;-38
2022/06/04 02:58:16;;;;;;;6.10;2.40;;;13.90;69.10;;;;;;5114318;28;20062;-40
2022/06/04 03:00:42;;;;;;;6.53;2.72;;;13.90;69.10;;;;;;5114261;28;20268;-38
2022/06/04 03:03:13;;;;;;;5.95;3.08;;;13.90;69.30;;;;;;5114304;28;20035;-40
2022/06/04 03:05:54;;;;;;;4.72;3.10;;;13.80;69.90;;;;;;5114299;28;20023;-45
2022/06/04 03:08:20;;;;;;;6.30;2.83;;;13.80;70.00;;;;;;5113996;27;20027;-40
2022/06/04 03:10:46;;;;;;;4.53;2.50;;;13.70;70.30;;;;;;5114055;28;20019;-40
2022/06/04 03:13:12;;;;;;;4.28;2.65;;;13.70;70.20;;;;;;5114115;28;20030;-39
2022/06/04 03:15:38;;;;;;;3.45;2.47;;;13.70;70.20;;;;;;5112867;28;20039;-39
2022/06/04 03:18:03;;;;;;;3.90;2.40;;;13.70;70.00;;;;;;5112628;28;20015;-38
2022/06/04 03:20:29;;;;;;;4.93;3.10;;;13.70;70.10;;;;;;5114236;28;20022;-39
2022/06/04 03:22:54;;;;;;;6.00;2.63;;;13.70;70.20;;;;;;5113943;28;20023;-39
2022/06/04 03:25:21;;;;;;;4.85;2.60;;;13.70;70.10;;;;;;5114060;28;20023;-39
2022/06/04 03:27:47;;;;;;;4.78;2.80;;;13.70;70.10;;;;;;5113964;28;20024;-38
2022/06/04 03:30:13;;;;;;;4.53;2.60;;;13.70;70.20;;;;;;5114206;28;20032;-39
2022/06/04 03:32:40;;;;;;;5.10;3.15;;;13.80;70.40;;;;;;5113489;28;20498;-38
2022/06/04 03:35:06;;;;;;;4.95;2.60;;;13.80;70.40;;;;;;5113646;28;20046;-40
2022/06/04 03:37:33;;;;;;;5.07;2.95;;;13.70;70.30;;;;;;5114005;28;20027;-40
2022/06/04 03:39:58;;;;;;;5.53;2.95;;;13.70;70.40;;;;;;5113533;28;20032;-40
2022/06/04 03:42:24;;;;;;;5.15;3.40;;;13.70;70.60;;;;;;5113328;28;20035;-39
2022/06/04 03:44:50;;;;;;;4.72;2.75;;;13.70;70.50;;;;;;5113337;28;20023;-39
2022/06/04 03:47:17;;;;;;;5.32;2.97;;;13.70;70.60;;;;;;5113717;28;20031;-40
2022/06/04 03:49:44;;;;;;;4.22;3.10;;;13.70;70.70;;;;;;5113802;28;20019;-38
2022/06/04 03:52:11;;;;;;;6.13;2.67;;;13.70;71.00;;;;;;5113655;28;20019;-39
2022/06/04 03:54:52;;;;;;;4.18;3.00;;;13.60;71.20;;;;;;5113569;28;20012;-48
2022/06/04 03:57:39;;;;;;;4.10;2.55;;;13.60;71.20;;;;;;5113344;28;20020;-40
2022/06/04 04:00:19;;;;;;;5.90;3.15;;;13.60;71.30;;;;;;5113374;28;20031;-40
2022/06/04 04:02:52;;;;;;;6.20;3.00;;;13.60;71.40;;;;;;5113219;28;20078;-39
2022/06/04 04:05:21;;;;;;;5.83;2.93;;;13.60;71.50;;;;;;5113549;28;20379;-39
2022/06/04 04:07:47;;;;;;;3.80;3.05;;;13.60;71.60;;;;;;5113149;28;20077;-38
2022/06/04 04:10:14;;;;;;;6.60;3.50;;;13.60;71.70;;;;;;5113138;28;20546;-40
2022/06/04 04:12:39;;;;;;;6.03;3.13;;;13.60;72.00;;;;;;5113426;28;20023;-40
2022/06/04 04:15:06;;;;;;;5.97;3.15;;;13.50;72.00;;;;;;5113205;28;20474;-39
2022/06/04 04:17:32;;;;;;;4.28;3.42;;;13.60;72.20;;;;;;5111792;28;20012;-39
2022/06/04 04:19:57;;;;;;;4.88;3.00;;;13.50;72.30;;;;;;5114101;28;20028;-40
2022/06/04 04:22:24;;;;;;;4.95;3.13;;;13.50;72.50;;;;;;5113094;28;20049;-38
2022/06/04 04:24:50;;;;;;;7.00;3.30;;;13.50;72.30;;;;;;5113179;28;20027;-40
2022/06/04 04:27:15;;;;;;;5.10;3.15;;;13.50;72.60;;;;;;5113135;28;20031;-39
2022/06/04 04:29:41;;;;;;;5.25;3.03;;;13.50;72.40;;;;;;5112842;28;20039;-38
2022/06/04 04:32:08;;;;;;;4.72;3.47;;;13.60;72.40;;;;;;5112808;28;20055;-38
2022/06/04 04:34:33;;;;;;;5.55;3.60;;;13.60;72.80;;;;;;5113199;28;20019;-39
2022/06/04 04:36:59;;;;;;;8.60;4.00;;;13.50;73.00;;;;;;5112894;28;20022;-39
2022/06/04 04:39:24;;;;;;;6.47;3.20;;;13.50;72.80;;;;;;5112805;28;20143;-38
2022/06/04 04:41:50;;;;;;;5.65;3.70;;;13.50;72.80;;;;;;5112675;28;20386;-38
2022/06/04 04:44:16;;;;;;;5.43;3.40;;;13.50;73.10;;;;;;5111647;28;20020;-39
2022/06/04 04:46:42;;;;;;;6.93;3.80;;;13.50;73.10;;;;;;5112445;28;20483;-38
2022/06/04 04:49:08;;;;;;;7.13;3.83;;;13.60;73.10;;;;;;5112875;28;20028;-39
2022/06/04 04:51:34;;;;;;;7.18;3.45;;;13.60;73.30;;;;;;5112535;28;20020;-39
2022/06/04 04:54:01;;;;;;;7.82;3.88;;;13.60;73.00;;;;;;5113195;28;20050;-40
2022/06/04 04:56:27;;;;;;;6.00;3.58;;;13.60;73.10;;;;;;5116446;28;20028;-39
2022/06/04 04:58:53;;;;;;;7.50;3.63;;;13.70;72.90;;;;;;5115091;28;20044;-39
2022/06/04 05:01:25;;;;;;;6.45;4.05;;;13.70;72.90;;;;;;5116643;28;20380;-39
2022/06/04 05:03:52;;;;;;;6.82;3.85;;;13.70;72.80;;;;;;5116395;28;20382;-44
2022/06/04 05:06:20;;;;;;;7.10;3.80;;;13.80;72.80;;;;;;5116256;28;20032;-40
2022/06/04 05:08:46;;;;;;;6.00;3.65;;;13.90;73.00;;;;;;5116488;28;20031;-38
2022/06/04 05:11:19;;;;;;;8.65;4.13;;;13.90;72.70;;;;;;5116371;28;20020;-39
2022/06/04 05:13:49;;;;;;;7.28;3.53;;;13.90;73.40;;;;;;5116131;28;20012;-38
2022/06/04 05:16:21;;;;;;;7.55;4.13;;;14.00;72.70;;;;;;5116420;28;20028;-38
2022/06/04 05:18:47;;;;;;;5.85;4.07;;;14.00;72.70;;;;;;5115992;28;20032;-39
2022/06/04 05:21:21;;;;;;;5.88;4.22;;;14.10;72.80;;;;;;5116238;28;20020;-39
2022/06/04 05:23:47;;;;;;;5.38;3.33;;;14.10;72.70;;;;;;5114650;28;20051;-38
2022/06/04 05:26:13;;;;;;;7.03;4.00;;;14.10;72.60;;;;;;5116206;28;20031;-39
2022/06/04 05:28:39;;;;;;;8.20;3.90;;;14.10;72.50;;;;;;5115756;28;20050;-38
2022/06/04 05:31:05;;;;;;;5.60;3.47;;;14.20;72.40;;;;;;5116272;28;20495;-38
2022/06/04 05:33:31;;;;;;;5.85;3.75;;;14.30;72.20;;;;;;5115761;28;20329;-39
2022/06/04 05:35:56;;;;;;;4.25;3.20;;;14.30;72.10;;;;;;5115628;27;20382;-39
2022/06/04 05:38:22;;;;;;;6.63;3.88;;;14.40;72.20;;;;;;5116079;28;20031;-39
2022/06/04 05:40:48;;;;;;;4.93;3.40;;;14.40;71.90;;;;;;5116020;28;20379;-40
2022/06/04 05:43:14;;;;;;;5.60;3.55;;;14.50;71.70;;;;;;5115654;28;20374;-39
2022/06/04 05:45:39;;;;;;;7.80;3.80;;;14.60;71.60;;;;;;5115943;28;20031;-39
2022/06/04 05:48:05;;;;;;;6.43;3.50;;;14.60;71.30;;;;;;5115666;28;20027;-39
2022/06/04 05:50:31;;;;;;;6.03;3.70;;;14.70;71.20;;;;;;5115840;28;20024;-43
2022/06/04 05:52:56;;;;;;;5.72;3.30;;;14.80;71.20;;;;;;5115354;28;20027;-40
2022/06/04 05:55:22;;;;;;;5.82;3.47;;;14.80;70.90;;;;;;5115385;28;20031;-40
2022/06/04 05:57:48;;;;;;;6.82;3.75;;;14.80;70.80;;;;;;5115409;27;20020;-38
2022/06/04 06:00:14;;;;;;;7.57;4.03;;;14.90;70.70;;;;;;5115623;28;20024;-38
2022/06/04 06:02:40;;;;;;;5.78;3.38;;;14.90;70.60;;;;;;5115707;27;20023;-38
2022/06/04 06:05:06;;;;;;;7.35;3.78;;;14.90;70.60;;;;;;5115185;28;20050;-39
2022/06/04 06:07:32;;;;;;;5.13;3.42;;;14.90;70.50;;;;;;5114827;28;20081;-38
2022/06/04 06:09:58;;;;;;;6.25;3.30;;;15.00;70.40;;;;;;5114928;28;20028;-39
2022/06/04 06:12:23;;;;;;;4.25;3.30;;;15.00;70.30;;;;;;5115362;27;20467;-39
2022/06/04 06:14:49;;;;;;;5.30;3.70;;;15.00;70.20;;;;;;5114910;27;20093;-39
2022/06/04 06:17:15;;;;;;;4.80;3.47;;;15.10;70.30;;;;;;5114964;28;20020;-39
2022/06/04 06:19:40;;;;;;;6.43;3.28;;;15.10;70.20;;;;;;5113846;28;20027;-39
2022/06/04 06:22:06;;;;;;;3.90;3.50;;;15.10;70.00;;;;;;5115145;28;20019;-40
2022/06/04 06:24:31;;;;;;;7.85;3.80;;;15.20;69.90;;;;;;5114883;28;20020;-39
2022/06/04 06:26:59;;;;;;;5.20;3.58;;;15.20;69.80;;;;;;5114755;28;20053;-39
2022/06/04 06:29:28;;;;;;;5.80;3.45;;;15.30;69.70;;;;;;5115035;28;20470;-41
2022/06/04 06:31:56;;;;;;;5.43;3.45;;;15.40;69.70;;;;;;5114989;28;20030;-38
2022/06/04 06:34:22;;;;;;;6.07;3.55;;;15.50;69.40;;;;;;5114430;27;20036;-39
2022/06/04 06:36:49;;;;;;;5.43;3.63;;;15.60;69.30;;;;;;5114926;28;20026;-40
2022/06/04 06:39:15;;;;;;;6.65;3.47;;;15.60;69.20;;;;;;5114880;28;20036;-39
2022/06/04 06:41:41;;;;;;;5.35;3.53;;;15.60;69.10;;;;;;5114431;28;20098;-39
2022/06/04 06:44:06;;;;;;;5.82;3.55;;;15.70;69.10;;;;;;5114450;28;20031;-38
2022/06/04 06:46:40;;;;;;;4.72;3.50;;;15.70;69.00;;;;;;5114626;28;20030;-39
2022/06/04 06:49:13;;;;;;;4.50;3.38;;;15.80;68.90;;;;;;5114383;28;20028;-39
2022/06/04 06:51:45;;;;;;;6.93;3.35;;;15.80;68.70;;;;;;5114605;28;20016;-38
2022/06/04 06:54:11;;;;;;;5.57;3.75;;;15.90;68.60;;;;;;5114545;28;20106;-39
2022/06/04 06:56:40;;;;;;;7.40;3.75;;;15.90;68.60;;;;;;5114121;28;20028;-37
2022/06/04 06:59:07;;;;;;;6.25;3.38;;;15.90;68.50;;;;;;5114050;28;20499;-38
2022/06/04 07:01:32;;;;;;;6.65;3.70;;;15.90;68.50;;;;;;5114425;28;20447;-39
2022/06/04 07:03:59;;;;;;;6.82;3.85;;;16.00;68.50;;;;;;5114087;28;20038;-39
2022/06/04 07:06:30;;;;;;;6.57;3.40;;;16.00;68.50;;;;;;5112791;28;20028;-39
2022/06/04 07:08:57;;;;;;;6.15;3.53;;;16.00;68.50;;;;;;5114192;28;20031;-38
2022/06/04 07:11:23;;;;;;;5.53;3.30;;;16.00;68.50;;;;;;5114380;28;20052;-38
2022/06/04 07:13:48;;;;;;;7.25;3.80;;;16.00;68.50;;;;;;5114396;28;20055;-38
2022/06/04 07:16:14;;;;;;;4.00;3.10;;;16.00;68.50;;;;;;5113992;28;20015;-39
2022/06/04 07:18:39;;;;;;;6.50;3.38;;;16.10;68.40;;;;;;5112799;28;20040;-39
2022/06/04 07:21:05;;;;;;;5.38;3.80;;;16.10;68.40;;;;;;5113752;28;20028;-39
2022/06/04 07:23:34;;;;;;;6.95;4.07;;;16.10;68.30;;;;;;5114346;27;20028;-39
2022/06/04 07:26:01;;;;;;;5.78;3.25;;;16.10;68.30;;;;;;5113703;28;20073;-38
2022/06/04 07:28:27;;;;;;;3.85;3.22;;;16.20;68.20;;;;;;5113615;28;20023;-39
2022/06/04 07:30:53;;;;;;;5.28;3.50;;;16.30;68.20;;;;;;5113672;28;20478;-39
2022/06/04 07:33:19;;;;;;;4.78;3.03;;;16.30;68.10;;;;;;5113801;28;20522;-39
2022/06/04 07:35:49;;;;;;;5.78;3.72;;;16.40;67.90;;;;;;5113592;28;20051;-39
2022/06/04 07:38:15;;;;;;;7.40;3.38;;;16.40;67.80;;;;;;5114083;28;20447;-39
2022/06/04 07:40:41;;;;;;;5.57;4.03;;;16.50;67.70;;;;;;5113556;28;20478;-39
2022/06/04 07:43:07;;;;;;;8.05;3.55;;;16.50;67.70;;;;;;5113402;28;20058;-39
2022/06/04 07:45:34;;;;;;;4.95;3.30;;;16.50;67.60;;;;;;5113288;28;20024;-38
2022/06/04 07:48:01;;;;;;;6.20;3.55;;;16.60;67.70;;;;;;5113534;28;20051;-39
2022/06/04 07:50:26;;;;;;;6.65;3.58;;;16.60;67.50;;;;;;5113409;28;20118;-40
2022/06/04 07:52:52;;;;;;;8.50;3.70;;;16.70;67.30;;;;;;5113268;28;20532;-40
2022/06/04 07:55:18;;;;;;;7.05;3.25;;;16.80;67.20;;;;;;5113291;28;20043;-39
2022/06/04 07:57:43;;;;;;;5.30;3.30;;;16.90;67.10;;;;;;5113232;28;20370;-37
2022/06/04 08:00:10;;;;;;;5.72;3.50;;;17.00;66.90;;;;;;5113404;28;20085;-39
2022/06/04 08:02:35;;;;;;;5.57;3.75;;;17.10;66.50;;;;;;5113418;28;20451;-39
2022/06/04 08:05:01;;;;;;;8.93;3.47;;;17.10;66.20;;;;;;5112113;28;20028;-40
2022/06/04 08:07:27;;;;;;;7.82;3.78;;;17.20;66.10;;;;;;5112994;28;20023;-40
2022/06/04 08:09:53;;;;;;;4.82;3.50;;;17.20;66.00;;;;;;5113085;28;20085;-39
2022/06/04 08:12:19;;;;;;;6.60;3.22;;;17.20;65.90;;;;;;5112808;28;20098;-39
2022/06/04 08:14:46;;;;;;;6.15;2.95;;;17.30;65.90;;;;;;5113073;28;20411;-39
2022/06/04 08:17:12;;;;;;;4.93;3.40;;;17.40;65.90;;;;;;5113133;28;20085;-39
2022/06/04 08:19:39;;;;;;;5.30;3.03;;;17.50;65.60;;;;;;5112745;28;20031;-40
2022/06/04 08:22:06;;;;;;;4.00;3.17;;;17.70;65.40;;;;;;5113369;28;20080;-40
2022/06/04 08:24:32;;;;;;;5.03;3.10;;;17.70;64.90;;;;;;5112739;28;20098;-40
2022/06/04 08:26:59;;;;;;;4.72;3.10;;;17.80;64.80;;;;;;5112798;28;20108;-42
2022/06/04 08:29:30;;;;;;;6.20;3.50;;;17.80;64.50;;;;;;5114705;28;20030;-39
2022/06/04 08:31:57;;;;;;;5.43;3.15;;;17.80;64.40;;;;;;5117065;28;20099;-39
2022/06/04 08:34:22;;;;;;;5.15;3.17;;;17.80;64.40;;;;;;5116908;28;20031;-39
2022/06/04 08:36:48;;;;;;;6.07;3.13;;;17.90;64.40;;;;;;5117115;28;20451;-40
2022/06/04 08:39:14;;;;;;;5.15;3.90;;;18.00;64.30;;;;;;5117040;28;20061;-39
2022/06/04 08:42:01;;;;;;;5.07;3.28;;;18.10;64.00;;;;;;5116845;28;20487;-40
2022/06/04 08:44:38;;;;;;;5.85;3.40;;;18.10;64.00;;;;;;5117160;28;20081;-41
2022/06/04 08:47:27;;;;;;;4.53;3.03;;;18.10;63.90;;;;;;5116762;28;20067;-39
2022/06/04 08:50:03;;;;;;;5.70;3.20;;;18.20;63.90;;;;;;5116837;28;20383;-40
2022/06/04 08:52:31;;;;;;;6.28;3.55;;;18.30;63.70;;;;;;5116445;28;20387;-39
2022/06/04 08:58:10;;;;;;;4.32;3.10;;;18.30;63.30;;;;;;5116548;28;20547;-40
2022/06/04 09:00:46;;;;;;;4.30;2.92;;;18.40;63.20;;;;;;5116442;28;20036;-38
2022/06/04 09:03:19;;;;;;;21.38;3.70;;;18.50;63.10;;;;;;5116685;28;20020;-38
2022/06/04 09:06:22;;;;;;;6.93;3.50;;;18.60;63.00;;;;;;5116649;28;20383;-38
2022/06/04 09:08:50;;;;;;;4.60;3.40;;;18.60;62.70;;;;;;5114601;28;20104;-38
2022/06/04 09:11:40;;;;;;;6.43;3.70;;;18.60;62.60;;;;;;5116255;28;20519;-40
2022/06/04 09:14:37;;;;;;;7.78;3.00;;;18.70;62.30;;;;;;5116177;28;20047;-39
2022/06/04 09:17:12;;;;;;;3.70;3.08;;;18.70;62.30;;;;;;5116276;28;20030;-40
2022/06/04 09:19:40;;;;;;;6.25;3.55;;;18.70;62.20;;;;;;5116445;28;20471;-40
2022/06/04 09:22:23;;;;;;;3.72;3.13;;;18.80;61.80;;;;;;5116520;28;20043;-38
2022/06/04 09:24:49;;;;;;;5.13;2.95;;;18.80;61.70;;;;;;5116078;28;20066;-48
2022/06/04 09:27:32;;;;;;;4.05;2.85;;;18.90;61.80;;;;;;5116351;28;20023;-39
2022/06/04 09:29:58;;;;;;;4.93;3.00;;;19.10;61.80;;;;;;5115744;28;20042;-38
2022/06/04 09:32:44;;;;;;;5.50;3.00;;;19.10;61.20;;;;;;5116043;28;20021;-40
2022/06/04 09:35:14;;;;;;;3.75;2.97;;;19.20;61.00;;;;;;5116254;28;20035;-38
2022/06/04 09:37:48;;;;;;;4.05;2.60;;;19.30;60.70;;;;;;5115831;28;20039;-37
2022/06/04 09:40:24;;;;;;;4.45;2.78;;;19.30;60.50;;;;;;5113979;28;20028;-39
2022/06/04 09:42:50;;;;;;;3.40;2.50;;;19.50;60.50;;;;;;5115553;28;20024;-44
2022/06/04 09:45:26;;;;;;;5.25;3.33;;;19.60;60.20;;;;;;5115782;28;20061;-39
2022/06/04 09:47:55;;;;;;;4.63;3.03;;;19.70;59.70;;;;;;5115747;28;20133;-39
2022/06/04 09:50:26;;;;;;;3.10;2.60;;;19.70;59.60;;;;;;5116085;28;20073;-39
2022/06/04 09:53:00;;;;;;;5.80;2.92;;;19.80;59.80;;;;;;5115672;28;20015;-39
2022/06/04 09:55:27;;;;;;;5.78;2.75;;;19.80;59.70;;;;;;5115575;28;20077;-41
2022/06/04 09:58:06;;;;;;;4.60;2.78;;;19.90;59.60;;;;;;5115535;28;20046;-39
2022/06/04 10:00:36;;;;;;;5.28;3.35;;;20.00;59.30;;;;;;5115519;28;20403;-40
2022/06/04 10:03:17;;;;;;;5.20;2.65;;;20.00;59.10;;;;;;5115755;28;20034;-40
2022/06/04 10:05:58;;;;;;;3.95;2.60;;;20.10;59.20;;;;;;5115529;27;20368;-40
2022/06/04 10:08:26;;;;;;;2.83;2.35;;;20.20;59.10;;;;;;5115181;28;20024;-40
2022/06/04 10:11:05;;;;;;;3.65;2.33;;;20.40;59.00;;;;;;5115469;28;20023;-41
2022/06/04 10:13:42;;;;;;;3.90;2.20;;;20.50;58.70;;;;;;5115329;28;20019;-40
2022/06/04 10:20:27;;;;;;;4.93;2.80;;;20.70;58.10;;;;;;5115470;28;20077;-41
2022/06/04 10:22:54;;;;;;;3.65;2.40;;;20.80;57.70;;;;;;5072262;28;20051;-43
2022/06/04 10:25:25;;;;;;;3.03;2.65;;;20.80;57.50;;;;;;5072286;28;20468;-40
2022/06/04 10:28:18;;;;;;;4.40;2.65;;;20.90;57.60;;;;;;5093843;28;20071;-41
2022/06/04 10:31:25;;;;;;;4.68;2.28;;;20.90;56.80;;;;;;5115119;28;20028;-41
2022/06/04 10:33:58;;;;;;;3.13;2.45;;;21.00;56.80;;;;;;5114240;28;20064;-41
2022/06/04 10:36:24;;;;;;;;;;;21.10;56.40;;;;;;5114954;28;20050;-40
2022/06/04 10:39:07;;;;;;;5.53;2.60;;;21.20;55.20;;;;;;5114485;28;19910;-40
2022/06/04 10:41:41;;;;;;;;;;;21.20;56.30;;;;;;5115178;28;20031;-40
2022/06/04 10:44:28;;;;;;;5.93;2.97;;;21.20;55.90;;;;;;5114931;28;19986;-39
2022/06/04 10:47:11;;;;;;;3.05;2.58;;;21.20;55.30;;;;;;5114593;28;20099;-40
2022/06/04 10:50:01;;;;;;;4.10;2.47;;;21.20;55.50;;;;;;5114631;28;20386;-41
2022/06/04 10:52:50;;;;;;;3.65;2.38;;;21.30;55.60;;;;;;5114175;27;20028;-39
2022/06/04 10:55:21;;;;;;;4.43;2.65;;;21.40;55.40;;;;;;5114083;28;20051;-40
2022/06/04 10:58:08;;;;;;;2.92;2.60;;;21.40;55.00;;;;;;5114426;28;20024;-40
2022/06/04 11:01:05;;;;;;;3.67;2.55;;;21.40;55.00;;;;;;5114119;28;20331;-40
2022/06/04 11:03:50;;;;;;;3.05;2.53;;;21.40;55.00;;;;;;5111677;28;20035;-39
2022/06/04 11:06:27;;;;;;;4.03;2.70;;;21.50;54.70;;;;;;5113935;28;20551;-40
2022/06/04 11:09:02;;;;;;;2.50;2.20;;;21.60;54.70;;;;;;5114067;28;20351;-40
2022/06/04 11:11:55;;;;;;;3.88;2.38;;;21.60;54.70;;;;;;5113821;28;20024;-39
2022/06/04 11:14:48;;;;;;;3.65;2.42;;;21.70;54.70;;;;;;5113693;28;20081;-40
2022/06/04 11:17:46;;;;;;;4.90;2.70;;;21.70;54.30;;;;;;5113735;28;20026;-40
2022/06/04 11:20:25;;;;;;;2.33;2.08;;;21.80;54.50;;;;;;5105617;28;20478;-39
2022/06/04 11:23:26;;;;;;;6.00;2.60;;;21.90;54.50;;;;;;5113573;28;20019;-40
2022/06/04 11:25:57;;;;;;;2.30;2.03;;;22.00;54.40;;;;;;5113585;28;20020;-40
2022/06/04 11:28:27;;;;;;;3.53;2.17;;;22.20;54.40;;;;;;5113348;28;20019;-39
2022/06/04 11:31:10;;;;;;;4.05;2.20;;;22.40;54.20;;;;;;5113848;28;20016;-41
2022/06/04 11:33:57;;;;;;;2.40;2.20;;;22.60;53.90;;;;;;5113595;28;20483;-41
2022/06/04 11:36:35;;;;;;;3.78;2.25;;;22.70;53.60;;;;;;5112017;28;20058;-40
2022/06/04 11:39:36;;;;;;;2.10;1.90;;;22.80;53.70;;;;;;5113398;28;20028;-41
2022/06/04 11:42:06;;;;;;;2.40;1.80;;;23.00;53.40;;;;;;5113233;28;20027;-40
2022/06/04 11:45:04;;;;;;;4.05;1.92;;;23.10;53.30;;;;;;5113232;28;20062;-40
2022/06/04 11:47:35;;;;;;;2.60;1.83;;;23.20;53.20;;;;;;5098617;28;20039;-40
2022/06/04 11:50:17;;;;;;;3.10;2.10;;;23.40;53.10;;;;;;5113073;28;20030;-41
2022/06/04 11:53:12;;;;;;;2.10;1.90;;;23.50;52.40;;;;;;5113265;28;20391;-38
2022/06/04 11:55:46;;;;;;;2.92;2.00;;;23.60;52.40;;;;;;5111621;28;20023;-38
2022/06/04 11:58:33;;;;;;;3.75;2.10;;;23.60;52.20;;;;;;5113002;28;20061;-40
2022/06/04 12:01:03;;;;;;;4.43;2.35;;;23.70;52.20;;;;;;5111821;28;20070;-40
2022/06/04 12:03:35;;;;;;;3.63;2.35;;;23.80;51.90;;;;;;5111300;28;20126;-39
2022/06/04 12:06:50;;;;;;;3.65;2.38;;;23.80;51.20;;;;;;5113366;28;20047;-40
2022/06/04 12:09:31;;;;;;;5.03;2.45;;;23.80;51.00;;;;;;5109490;28;20040;-39
2022/06/04 12:12:21;;;;;;;2.45;2.00;;;23.80;50.50;;;;;;5095925;28;20020;-40
2022/06/04 12:15:01;;;;;;;4.55;1.90;;;23.90;50.80;;;;;;5112823;28;20027;-40
2022/06/04 12:17:47;;;;;;;2.08;1.70;;;24.10;51.00;;;;;;5113323;28;20024;-40
2022/06/04 12:26:25;;;;;;;2.03;1.90;;;24.60;50.40;;;;;;5113158;28;20043;-40
2022/06/04 12:28:51;;;;;;;2.47;2.00;;;24.70;50.30;;;;;;5112812;28;20024;-41
2022/06/04 12:31:35;;;;;;;3.38;2.40;;;24.70;50.10;;;;;;5113201;28;20012;-41
2022/06/04 12:34:03;;;;;;;4.53;1.85;;;24.70;50.10;;;;;;5111665;28;20110;-40
2022/06/04 12:36:36;;;;;;;2.20;1.90;;;24.80;50.10;;;;;;5112915;28;20024;-41
2022/06/04 12:39:02;;;;;;;;;;;24.90;50.00;;;;;;5113506;28;20048;-41
2022/06/04 12:41:45;;;;;;;3.65;1.88;;;25.00;50.10;;;;;;5113070;28;20408;-40
2022/06/04 12:44:21;;;;;;;;;;;25.20;50.10;;;;;;5113237;28;20022;-40
2022/06/04 12:46:48;;;;;;;2.40;1.95;;;25.40;50.00;;;;;;5113260;28;19904;-40
2022/06/04 12:49:53;;;;;;;3.67;2.40;;;25.40;49.60;;;;;;5112646;28;20023;-39
2022/06/04 12:52:29;;;;;;;3.05;2.10;;;25.40;49.00;;;;;;5089425;28;20047;-40
2022/06/04 12:55:11;;;;;;;4.65;1.88;;;25.30;48.80;;;;;;5112657;28;20031;-40
2022/06/04 12:57:57;;;;;;;2.25;1.88;;;25.40;49.00;;;;;;5112599;28;20024;-40
2022/06/04 13:00:27;;;;;;;1.95;1.75;;;25.60;49.00;;;;;;5111250;28;20366;-39
2022/06/04 13:03:11;;;;;;;3.05;2.00;;;25.70;48.90;;;;;;5113100;28;20471;-42
2022/06/04 13:05:56;;;;;;;3.35;1.80;;;25.90;48.50;;;;;;5111348;28;20032;-40
2022/06/04 13:08:46;;;;;;;2.35;1.70;;;26.00;48.10;;;;;;5112813;28;20046;-41
2022/06/04 13:11:31;;;;;;;3.05;1.70;;;26.00;48.00;;;;;;5112909;28;20372;-41
2022/06/04 13:14:06;;;;;;;3.97;1.90;;;26.10;47.90;;;;;;5112508;28;20023;-41
2022/06/04 13:16:44;;;;;;;1.83;1.70;;;26.10;47.90;;;;;;5115474;28;20501;-41
2022/06/04 13:19:35;;;;;;;2.00;1.80;;;26.10;47.80;;;;;;5116203;28;20032;-38
2022/06/04 13:22:02;;;;;;;1.70;1.60;;;26.10;47.80;;;;;;5116240;28;20108;-40
2022/06/04 13:24:34;;;;;;;1.70;1.60;;;26.10;47.70;;;;;;5116344;28;20039;-39
2022/06/04 13:27:10;;;;;;;3.17;1.60;;;26.20;47.70;;;;;;5115986;28;20027;-40
2022/06/04 13:29:37;;;;;;;2.25;1.88;;;26.30;47.50;;;;;;5114605;28;20482;-40
2022/06/04 13:32:10;;;;;;;2.33;1.60;;;26.40;47.40;;;;;;5115801;28;20073;-40
2022/06/04 13:34:36;;;;;;;3.13;1.90;;;26.50;47.10;;;;;;5116024;28;20442;-41
2022/06/04 13:37:05;;;;;;;2.65;2.00;;;26.50;46.80;;;;;;5115978;28;20459;-40
2022/06/04 13:39:33;;;;;;;3.08;1.80;;;26.60;46.80;;;;;;5115849;28;20059;-39